Flight Track Log - Related Links

Times and Time Zones

All times are in EDT time to prevent confusion due to time zone crossing. See the TAM3891 flight status page for this flight to view local times or setup timezone preferences in your user account.

Time Position Orientation Groundspeed Altitude Reporting Facility
EDT Latitude Longitude Course Direction KTS MPH feet Rate Location/Type
Sun 03:43:00 PM -2.7287 -57.8337 82° East  Level Estimated
Sun 03:44:00 PM -2.7145 -57.7330 82° East  Level Estimated
Sun 03:45:00 PM -2.7004 -57.6323 82° East  Level Estimated
Sun 03:46:00 PM -2.6862 -57.5316 82° East  Level Estimated
Sun 03:47:00 PM -2.6719 -57.4309 82° East  Level Estimated
Sun 03:48:00 PM -2.6577 -57.3302 82° East  Level Estimated
Sun 03:49:00 PM -2.6435 -57.2296 82° East  Level Estimated
Sun 03:50:00 PM -2.6293 -57.1289 82° East  Level Estimated
Sun 03:51:00 PM -2.6150 -57.0282 82° East  Level Estimated
Sun 03:52:00 PM -2.6008 -56.9275 82° East  Level Estimated
Sun 03:53:00 PM -2.5865 -56.8268 82° East  Level Estimated
Sun 03:54:00 PM -2.5722 -56.7262 82° East  Level Estimated
Sun 03:55:00 PM -2.5580 -56.6255 82° East  Level Estimated
Sun 03:56:00 PM -2.5437 -56.5248 82° East  Level Estimated
Sun 03:57:00 PM -2.5294 -56.4241 82° East  Level Estimated
Sun 03:58:00 PM -2.5151 -56.3235 82° East  Level Estimated
Sun 03:59:00 PM -2.5008 -56.2228 82° East  Level Estimated
Sun 04:00:00 PM -2.4865 -56.1222 82° East  Level Estimated
Sun 04:01:00 PM -2.4721 -56.0215 82° East  Level Estimated
Sun 04:02:00 PM -2.4578 -55.9208 82° East  Level Estimated
Sun 04:03:00 PM -2.4435 -55.8202 82° East  Level Estimated
Sun 04:04:00 PM -2.4291 -55.7195 82° East  Level Estimated
Sun 04:05:00 PM -2.4148 -55.6189 82° East  Level Estimated
Sun 04:06:00 PM -2.4004 -55.5182 82° East  Level Estimated
Sun 04:07:00 PM -2.3860 -55.4176 82° East  Level Estimated
Sun 04:08:00 PM -2.3717 -55.3169 82° East  Level Estimated
Sun 04:09:00 PM -2.3555 -55.2034 82° East  Level Estimated
Sun 04:10:00 PM -2.3392 -55.0900 82° East  Level Estimated
Sun 04:11:00 PM -2.3230 -54.9765 82° East  Level Estimated
Sun 04:12:00 PM -2.3068 -54.8631 82° East  Level Estimated
Sun 04:13:00 PM -2.2905 -54.7496 82° East  Level Estimated
Sun 04:14:00 PM -2.2743 -54.6361 82° East  Level Estimated
Sun 04:15:00 PM -2.2580 -54.5227 82° East  Level Estimated
Sun 04:16:00 PM -2.2417 -54.4092 82° East  Level Estimated
Sun 04:17:00 PM -2.2254 -54.2958 82° East  Level Estimated
Sun 04:18:00 PM -2.2091 -54.1823 82° East  Level Estimated
Sun 04:19:00 PM -2.1928 -54.0689 82° East  Level Estimated
Sun 04:20:00 PM -2.1765 -53.9555 82° East  Level Estimated
Sun 04:21:00 PM -2.1602 -53.8420 82° East  Level Estimated
Sun 04:22:00 PM -2.1439 -53.7286 82° East  Level Estimated
Sun 04:23:00 PM -2.1275 -53.6152 82° East  Level Estimated
Sun 04:24:00 PM -2.1112 -53.5017 82° East  Level Estimated
Sun 04:25:00 PM -2.0948 -53.3883 82° East  Level Estimated
Sun 04:26:00 PM -2.0784 -53.2749 82° East  Level Estimated
Sun 04:27:00 PM -2.0621 -53.1614 82° East  Level Estimated
Sun 04:28:00 PM -2.0457 -53.0480 82° East  Level Estimated
Sun 04:29:00 PM -2.0293 -52.9346 82° East  Level Estimated
Sun 04:30:00 PM -2.0129 -52.8212 82° East  Level Estimated
Sun 04:31:00 PM -1.9965 -52.7077 82° East  Level Estimated
Sun 04:32:00 PM -1.9801 -52.5943 82° East  Level Estimated
Sun 04:33:00 PM -1.9637 -52.4809 82° East  Level Estimated
Sun 04:34:00 PM -1.9473 -52.3675 82° East  Level Estimated
Sun 04:35:00 PM -1.9308 -52.2541 82° East  Level Estimated
Sun 04:36:00 PM -1.9144 -52.1407 82° East  Level Estimated
Sun 04:37:00 PM -1.8979 -52.0273 82° East  Level Estimated
Sun 04:38:00 PM -1.8815 -51.9139 82° East  Level Estimated
Sun 04:38:32 PM -1.8630 -51.1240 82° East 445 512 39,000  Level FlightAware ADS-B
Sun 04:39:00 PM -1.8650 -51.8005 82° East  Level Estimated
Sun 04:39:12 PM -1.8390 -51.0490 72° East 445 512 39,000  Level FlightAware ADS-B
Sun 04:40:12 PM -1.8010 -50.9370 71° East 445 512 39,000  Level FlightAware ADS-B
Sun 04:41:07 PM -1.8010 -50.8110 90° East 451 519 39,000  Level FlightAware ADS-B
Sun 04:42:02 PM -1.7970 -50.6980 88° East 452 520 39,000  Level FlightAware ADS-B
Sun 04:42:37 PM -1.7950 -50.6250 88° East 453 521 39,000 -494 Level FlightAware ADS-B
Sun 04:43:27 PM -1.7910 -50.5270 88° East 458 527 38,300 -1,694 Descending FlightAware ADS-B
Sun 04:44:02 PM -1.7880 -50.4460 88° East 457 526 36,600 -2,894 Descending FlightAware ADS-B
Sun 04:44:52 PM -1.7850 -50.3380 88° East 459 528 34,200 -2,667 Descending FlightAware ADS-B
Sun 04:45:32 PM -1.7810 -50.2520 87° East 449 517 32,600 -2,160 Descending FlightAware ADS-B
Sun 04:46:07 PM -1.7800 -50.1940 89° East 439 505 31,500 -2,084 Descending FlightAware ADS-B
Sun 04:47:07 PM -1.7750 -50.0740 88° East 428 493 29,300 -2,220 Descending FlightAware ADS-B
Sun 04:47:47 PM -1.7720 -49.9940 88° East 414 476 27,800 -2,175 Descending FlightAware ADS-B
Sun 04:48:27 PM -1.7700 -49.9220 88° East 406 467 26,400 -988 Descending FlightAware ADS-B
Sun 04:49:12 PM -1.7670 -49.8450 88° East 406 467 26,400  Level FlightAware ADS-B
Sun 04:49:52 PM -1.7650 -49.7810 88° East 406 467 26,400  Level FlightAware ADS-B
Sun 04:50:42 PM -1.7620 -49.7010 88° East 406 467 26,400  Level FlightAware ADS-B
Sun 04:51:22 PM -1.7600 -49.6370 88° East 406 467 26,400  Level FlightAware ADS-B
Sun 04:52:02 PM -1.7580 -49.5740 88° East 406 467 26,400  Level FlightAware ADS-B
Sun 04:54:00 PM -1.6846 -49.3610 71° East  Level Estimated
Sun 04:55:00 PM -1.6472 -49.2527 71° East  Level Estimated
Sun 04:56:00 PM -1.6099 -49.1444 71° East  Level Estimated
Sun 04:57:00 PM -1.5725 -49.0361 71° East  Level Estimated
Sun 04:58:00 PM -1.5351 -48.9278 71° East  Level Estimated
Sun 04:59:00 PM -1.4977 -48.8195 71° East  Level Estimated
Sun 05:00:00 PM -1.4604 -48.7112 71° East  Level Estimated
Sun 05:01:00 PM -1.4230 -48.6029 71° East  Level Estimated
Sun 05:02:00 PM -1.3856 -48.4946 71° East  Level Estimated
Sun 05:03:00 PM -1.3793 -48.4763 71° East  Level Estimated
Sun 05:04:00 PM -1.3793 -48.4763 270° West  Level Estimated
Sun 05:05:00 PM -1.3793 -48.4763 270° West  Level Estimated
Sun 05:06:00 PM -1.3793 -48.4763 270° West  Level Estimated
Sun 05:07:00 PM -1.3793 -48.4763 270° West  Level Estimated
Sun 05:08:00 PM -1.3793 -48.4763 270° West  Level Estimated
Sun 05:09:00 PM -1.3793 -48.4763 270° West  Level Estimated
Sun 05:10:00 PM -1.3793 -48.4763 270° West  Level Estimated
Sun 05:11:00 PM -1.3793 -48.4763 270° West  Level Estimated
Sun 05:12:00 PM -1.3793 -48.4763 270° West  Level Estimated
Sun 05:13:00 PM -1.3793 -48.4763 270° West  Level Estimated
Sun 05:14:00 PM -1.3793 -48.4763 270° West  Level Estimated
Sun 05:15:00 PM -1.3793 -48.4763 270° West  Level Estimated
Sun 05:16:00 PM -1.3793 -48.4763 270° West  Level Estimated
Sun 05:17:00 PM -1.3793 -48.4763 270° West  Level Estimated
Sun 05:18:00 PM -1.3793 -48.4763 270° West  Level Estimated
Sun 05:19:00 PM -1.3793 -48.4763 270° West  Level Estimated

Login

Don't have an account? Register now (free) for customized features, flight alerts, and more!